This is the latest recevied weather packets stored in our database for station/object SV2RCS-13. If no packets are shown the sender has not sent any weather packets the latest 10 day(s).
| Time | Temp. | Humidity | Pressure | Rain* | Wind** | Luminosity | Snow |
|---|---|---|---|---|---|---|---|
| 1777799819 | 13.89° C | 24% | 1016.5 hPa | - | - | - | - |
| 1777799219 | 13.89° C | 22% | 1016.7 hPa | - | - | - | - |
| 1777798620 | 14.44° C | 22% | 1016.4 hPa | - | - | - | - |
| 1777798019 | 15° C | 23% | 1016.2 hPa | - | - | - | - |
| 1777797419 | 14.44° C | 23% | 1016.5 hPa | - | - | - | - |
| 1777796819 | 13.89° C | 25% | 1016.7 hPa | - | - | - | - |
| 1777796220 | 12.78° C | 26% | 1016.9 hPa | - | - | - | - |
| 1777795620 | 13.89° C | 25% | 1016.6 hPa | - | - | - | - |
| 1777795020 | 13.89° C | 24% | 1016.6 hPa | - | - | - | - |
| 1777794419 | 15° C | 25% | 1016.3 hPa | - | - | - | - |
| 1777793819 | 14.44° C | 25% | 1016.4 hPa | - | - | - | - |
| 1777793219 | 14.44° C | 27% | 1016.4 hPa | - | - | - | - |
| 1777792619 | 13.33° C | 33% | 1016.7 hPa | - | - | - | - |
| 1777792019 | 12.78° C | 34% | 1017.1 hPa | - | - | - | - |
| 1777791420 | 11.67° C | 33% | 1017.3 hPa | - | - | - | - |
| 1777790819 | 11.67° C | 32% | 1017.2 hPa | - | - | - | - |
| 1777790220 | 12.22° C | 35% | 1017 hPa | - | - | - | - |
| 1777789621 | 11.67° C | 38% | 1017.3 hPa | - | - | - | - |
| 1777789020 | 11.11° C | 36% | 1017.5 hPa | - | - | - | - |
| 1777788419 | 10.56° C | 37% | 1017.5 hPa | - | - | - | - |
| 1777787819 | 10° C | 41% | 1017.8 hPa | - | - | - | - |
| 1777787219 | 9.44° C | 44% | 1017.6 hPa | - | - | - | - |
| 1777786619 | 9.44° C | 49% | 1017.9 hPa | - | - | - | - |
| 1777786019 | 9.44° C | 46% | 1017.8 hPa | - | - | - | - |
| 1777785419 | 9.44° C | 44% | 1017.6 hPa | - | - | - | - |
* Rain since midnight (hover to see other rain measurements)
** Current wind speed in m/s (hover to see current wind gust speed)